Time;durP1;ratioP1;P1;durP2;ratioP2;P2;SDS_P1;SDS_P2;PMS_P1;PMS_P2;Temp;Humidity;BMP_temperature;BMP_pressure;BME280_temperature;BME280_humidity;BME280_pressure;Samples;Min_cycle;Max_cycle;Signal;HPM_P1;HPM_P2
2021/08/28 00:01:01;;;;;;;3.20;3.00;;;14.30;99.90;;;;;;5117235;28;20518;-79
2021/08/28 00:03:28;;;;;;;2.80;2.60;;;14.30;99.90;;;;;;5117747;28;20479;-79
2021/08/28 00:05:55;;;;;;;3.03;2.83;;;14.30;99.90;;;;;;5117146;28;20518;-78
2021/08/28 00:08:21;;;;;;;2.90;2.60;;;14.30;99.90;;;;;;5117651;28;20447;-79
2021/08/28 00:10:48;;;;;;;2.63;2.43;;;14.30;99.90;;;;;;5117342;28;20474;-79
2021/08/28 00:13:15;;;;;;;3.00;2.80;;;14.30;99.90;;;;;;5117610;28;20485;-78
2021/08/28 00:15:42;;;;;;;2.50;2.37;;;14.30;99.90;;;;;;5117432;28;20611;-79
2021/08/28 00:18:10;;;;;;;3.10;2.90;;;14.30;99.90;;;;;;5121176;28;20474;-78
2021/08/28 00:20:37;;;;;;;3.50;3.20;;;14.30;99.90;;;;;;5123588;28;20851;-78
2021/08/28 00:23:04;;;;;;;3.47;2.53;;;14.30;99.90;;;;;;5117785;28;20443;-79
2021/08/28 00:25:31;;;;;;;4.20;2.70;;;14.30;99.90;;;;;;5117037;28;20545;-79
2021/08/28 00:27:58;;;;;;;3.10;2.60;;;14.20;99.90;;;;;;5117017;28;20789;-79
2021/08/28 00:30:24;;;;;;;3.37;3.07;;;14.30;99.90;;;;;;5117263;28;20459;-78
2021/08/28 00:32:51;;;;;;;3.20;3.00;;;14.30;99.90;;;;;;5122624;28;20479;-78
2021/08/28 00:35:19;;;;;;;3.40;3.10;;;14.30;99.90;;;;;;5124060;28;20498;-78
2021/08/28 00:37:46;;;;;;;3.57;3.27;;;14.40;99.90;;;;;;5123017;28;20447;-79
2021/08/28 00:40:13;;;;;;;3.80;2.93;;;13.90;99.90;;;;;;5116914;28;21078;-78
2021/08/28 00:42:48;;;;;;;3.63;3.33;;;14.30;99.90;;;;;;5116518;28;20447;-79
2021/08/28 00:45:14;;;;;;;3.00;2.70;;;14.30;99.90;;;;;;5116040;28;20470;-79
2021/08/28 00:47:47;;;;;;;4.00;3.70;;;14.20;99.90;;;;;;5116580;28;20504;-78
2021/08/28 00:50:14;;;;;;;3.57;3.27;;;14.20;99.90;;;;;;5117103;28;20902;-79
2021/08/28 00:52:42;;;;;;;3.90;3.60;;;14.20;99.90;;;;;;5117531;28;20481;-79
2021/08/28 00:55:09;;;;;;;4.10;3.50;;;14.40;99.90;;;;;;5116374;28;20482;-78
2021/08/28 00:57:35;;;;;;;4.23;3.40;;;14.30;99.90;;;;;;5118793;28;20475;-78
2021/08/28 01:00:03;;;;;;;3.10;2.90;;;14.40;99.90;;;;;;5115395;28;20510;-78
2021/08/28 01:02:31;;;;;;;4.70;3.30;;;14.30;99.90;;;;;;5115165;28;20479;-78
2021/08/28 01:05:04;;;;;;;4.50;4.10;;;14.30;99.90;;;;;;5115184;28;20559;-78
2021/08/28 01:07:38;;;;;;;6.10;4.30;;;14.30;99.90;;;;;;5115643;28;20428;-78
2021/08/28 01:10:08;;;;;;;4.27;3.97;;;14.40;99.90;;;;;;5115173;28;20467;-78
2021/08/28 01:12:41;;;;;;;4.83;4.43;;;14.30;99.90;;;;;;5115690;28;20872;-79
2021/08/28 01:15:12;;;;;;;8.17;5.03;;;14.30;99.90;;;;;;5116239;28;20464;-78
2021/08/28 01:17:43;;;;;;;4.87;4.47;;;14.30;99.90;;;;;;5116066;28;20462;-78
2021/08/28 01:20:26;;;;;;;5.03;4.57;;;14.30;99.90;;;;;;5116841;28;20491;-78
2021/08/28 01:22:54;;;;;;;4.90;4.60;;;14.30;99.90;;;;;;5116071;28;20463;-79
2021/08/28 01:25:23;;;;;;;5.10;4.60;;;14.30;99.90;;;;;;5115736;28;20958;-79
2021/08/28 01:27:56;;;;;;;5.67;5.17;;;14.30;99.90;;;;;;5115970;28;20545;-78
2021/08/28 01:30:24;;;;;;;5.20;4.70;;;14.20;99.90;;;;;;5117450;28;20488;-79
2021/08/28 01:32:51;;;;;;;5.70;5.17;;;14.20;99.90;;;;;;5115825;28;20471;-78
2021/08/28 01:35:20;;;;;;;7.80;5.47;;;14.20;99.90;;;;;;5115260;28;20809;-78
2021/08/28 01:37:48;;;;;;;5.67;5.17;;;14.20;99.90;;;;;;5115263;28;20476;-79
2021/08/28 01:40:16;;;;;;;6.67;6.07;;;14.20;99.90;;;;;;5115835;28;20534;-79
2021/08/28 01:42:43;;;;;;;6.13;5.63;;;14.20;99.90;;;;;;5116683;28;20500;-80
2021/08/28 01:45:13;;;;;;;6.20;5.30;;;14.20;99.90;;;;;;5115682;28;20475;-80
2021/08/28 01:47:43;;;;;;;6.80;5.53;;;14.20;99.90;;;;;;5116389;28;20562;-80
2021/08/28 01:50:11;;;;;;;6.10;5.50;;;14.10;99.90;;;;;;5115648;28;20443;-78
2021/08/28 01:52:39;;;;;;;6.30;5.77;;;14.20;99.90;;;;;;5115514;28;20482;-79
2021/08/28 01:55:06;;;;;;;6.50;5.90;;;14.10;99.90;;;;;;5116009;28;20538;-79
2021/08/28 01:57:33;;;;;;;6.33;5.50;;;;;;;;;;5116772;28;20447;-78
2021/08/28 02:00:02;;;;;;;6.87;6.23;;;14.10;99.90;;;;;;5121077;28;20816;-78
2021/08/28 02:02:28;;;;;;;9.50;5.80;;;14.10;99.90;;;;;;5122236;28;20512;-78
2021/08/28 02:04:57;;;;;;;7.00;6.40;;;14.10;99.90;;;;;;5122505;28;20463;-78
2021/08/28 02:07:31;;;;;;;7.57;6.80;;;14.10;99.90;;;;;;5124612;28;20440;-78
2021/08/28 02:10:03;;;;;;;8.77;5.97;;;14.10;99.90;;;;;;5121331;28;20450;-78
2021/08/28 02:12:35;;;;;;;6.70;6.10;;;14.00;99.90;;;;;;5115702;28;20959;-79
2021/08/28 02:15:06;;;;;;;8.10;6.10;;;14.10;99.90;;;;;;5115755;28;20427;-79
2021/08/28 02:17:36;;;;;;;6.97;6.27;;;14.10;99.90;;;;;;5116263;28;20432;-79
2021/08/28 02:20:07;;;;;;;10.20;6.30;;;14.10;99.90;;;;;;5115241;28;20428;-79
2021/08/28 02:22:43;;;;;;;6.83;6.23;;;14.10;99.90;;;;;;5115404;28;20479;-79
2021/08/28 02:25:16;;;;;;;6.87;6.27;;;14.20;99.90;;;;;;5115247;28;20466;-79
2021/08/28 02:27:47;;;;;;;9.37;7.10;;;14.10;99.90;;;;;;5115571;28;20423;-79
2021/08/28 02:30:18;;;;;;;6.77;6.20;;;14.10;99.90;;;;;;5114799;28;20856;-79
2021/08/28 02:32:46;;;;;;;7.70;7.00;;;14.10;99.90;;;;;;5115297;28;20821;-79
2021/08/28 02:35:15;;;;;;;7.90;7.20;;;14.10;99.90;;;;;;5114937;28;20451;-79
2021/08/28 02:37:43;;;;;;;8.37;7.47;;;14.10;99.90;;;;;;5115151;28;20479;-79
2021/08/28 02:40:13;;;;;;;7.47;6.77;;;14.10;99.90;;;;;;5115384;28;20475;-79
2021/08/28 02:42:44;;;;;;;6.70;6.00;;;14.10;99.90;;;;;;5118852;28;20439;-79
2021/08/28 02:45:14;;;;;;;7.73;7.03;;;14.10;99.90;;;;;;5120959;28;20463;-78
2021/08/28 02:47:41;;;;;;;8.93;6.50;;;14.10;99.90;;;;;;5121570;28;20432;-78
2021/08/28 02:50:09;;;;;;;7.37;6.30;;;13.80;99.90;;;;;;5121988;28;20444;-78
2021/08/28 02:52:37;;;;;;;7.03;6.00;;;14.00;99.90;;;;;;5120125;28;20473;-78
2021/08/28 02:55:06;;;;;;;7.80;6.90;;;13.90;99.90;;;;;;5120134;28;20474;-78
2021/08/28 02:57:35;;;;;;;8.27;7.40;;;13.90;99.90;;;;;;5118442;28;20973;-78
2021/08/28 03:00:02;;;;;;;8.00;7.13;;;13.90;99.90;;;;;;5117313;28;20479;-79
2021/08/28 03:02:29;;;;;;;7.97;7.20;;;13.90;99.90;;;;;;5118992;28;20507;-77
2021/08/28 03:04:56;;;;;;;7.70;7.00;;;13.90;99.90;;;;;;5120739;28;20820;-78
2021/08/28 03:07:23;;;;;;;8.90;7.40;;;13.90;99.90;;;;;;5125798;28;20439;-78
2021/08/28 03:09:53;;;;;;;9.00;8.00;;;13.90;99.90;;;;;;5119019;28;20554;-79
2021/08/28 03:12:20;;;;;;;8.43;7.43;;;13.80;99.90;;;;;;5117692;28;20491;-78
2021/08/28 03:14:47;;;;;;;10.00;8.67;;;13.90;99.90;;;;;;5118208;28;20443;-78
2021/08/28 03:17:15;;;;;;;9.23;7.40;;;13.90;99.90;;;;;;5117674;28;20506;-78
2021/08/28 03:19:43;;;;;;;10.07;7.73;;;13.80;99.90;;;;;;5117761;28;20447;-78
2021/08/28 03:22:13;;;;;;;9.67;8.13;;;13.80;99.90;;;;;;5118162;28;20507;-78
2021/08/28 03:24:41;;;;;;;9.50;7.90;;;13.80;99.90;;;;;;5117708;28;20482;-78
2021/08/28 03:27:09;;;;;;;8.80;7.90;;;13.80;99.90;;;;;;5117984;28;20469;-79
2021/08/28 03:29:37;;;;;;;9.43;8.00;;;13.80;99.90;;;;;;5121913;28;20473;-78
2021/08/28 03:32:06;;;;;;;9.13;7.43;;;13.80;99.90;;;;;;5121841;28;20463;-78
2021/08/28 03:34:33;;;;;;;10.80;7.97;;;13.90;99.90;;;;;;5120685;28;20500;-79
2021/08/28 03:37:01;;;;;;;10.60;9.20;;;13.80;99.90;;;;;;5121334;28;20450;-78
2021/08/28 03:39:28;;;;;;;9.27;8.27;;;13.80;99.90;;;;;;5121127;28;20475;-78
2021/08/28 03:41:55;;;;;;;8.60;7.80;;;13.80;99.90;;;;;;5124333;28;20893;-78
2021/08/28 03:44:23;;;;;;;8.77;7.87;;;13.80;99.90;;;;;;5126698;28;20447;-78
2021/08/28 03:46:50;;;;;;;8.63;7.50;;;13.80;99.90;;;;;;5126339;28;20799;-78
2021/08/28 03:49:18;;;;;;;8.57;7.67;;;13.80;99.90;;;;;;5121234;28;20481;-78
2021/08/28 03:51:44;;;;;;;10.60;7.57;;;13.80;99.90;;;;;;5121769;28;20467;-78
2021/08/28 03:54:11;;;;;;;8.50;7.13;;;13.80;99.90;;;;;;5117892;28;20516;-79
2021/08/28 03:56:41;;;;;;;9.57;8.67;;;13.80;99.90;;;;;;5118252;28;20482;-79
2021/08/28 03:59:07;;;;;;;8.40;7.63;;;13.90;99.90;;;;;;5118104;28;20439;-79
2021/08/28 04:32:56;;;;;;;;;;;;;;;;;;;;;
2021/08/28 04:36:41;;;;;;;;;;;;;;;;;;;;;
2021/08/28 05:18:19;;;;;;;9.90;7.30;;;13.90;99.90;;;;;;4784701;29;20821;-80
2021/08/28 06:00:13;;;;;;;10.07;8.57;;;13.40;99.90;;;;;;4864790;29;20434;-78
2021/08/28 06:17:34;;;;;;;7.50;6.53;;;13.30;99.90;;;;;;5018127;28;20440;-79
2021/08/28 06:26:16;;;;;;;7.67;6.83;;;13.40;99.90;;;;;;5151301;22;20506;-79
2021/08/28 06:28:43;;;;;;;9.97;7.20;;;13.50;99.90;;;;;;5118967;28;20435;-78
2021/08/28 06:31:09;;;;;;;8.97;6.97;;;13.60;99.90;;;;;;5123058;28;20450;-79
2021/08/28 06:33:36;;;;;;;7.10;6.03;;;13.70;99.90;;;;;;5126534;28;20440;-78
2021/08/28 06:36:04;;;;;;;7.20;5.57;;;13.70;99.90;;;;;;5120805;28;20456;-79
2021/08/28 06:38:31;;;;;;;10.47;6.43;;;13.50;99.90;;;;;;5118592;28;20813;-79
2021/08/28 06:40:58;;;;;;;8.63;6.70;;;13.50;99.90;;;;;;5120328;28;20477;-79
2021/08/28 06:43:28;;;;;;;6.87;5.40;;;13.50;99.90;;;;;;5122359;28;20555;-78
2021/08/28 06:45:58;;;;;;;7.97;5.87;;;13.50;99.90;;;;;;5130372;28;20455;-78
2021/08/28 06:48:27;;;;;;;7.03;5.50;;;13.50;99.90;;;;;;5124748;28;20439;-78
2021/08/28 06:50:56;;;;;;;8.37;6.47;;;13.70;99.90;;;;;;5125088;28;20435;-78
2021/08/28 06:53:27;;;;;;;7.77;5.50;;;13.30;99.90;;;;;;5127241;28;20442;-78
2021/08/28 06:55:54;;;;;;;7.60;5.90;;;13.30;99.90;;;;;;5124340;28;20455;-79
2021/08/28 06:58:21;;;;;;;7.83;5.57;;;13.50;99.90;;;;;;5131966;28;20439;-78
2021/08/28 07:00:50;;;;;;;7.17;5.70;;;13.60;99.90;;;;;;5126921;28;20475;-78
2021/08/28 07:03:16;;;;;;;9.03;6.17;;;13.60;99.90;;;;;;5124543;28;20483;-79
2021/08/28 07:05:43;;;;;;;6.20;5.13;;;13.60;99.90;;;;;;5124154;28;20472;-79
2021/08/28 07:08:10;;;;;;;5.83;5.33;;;13.60;99.90;;;;;;5123914;28;20447;-79
2021/08/28 07:10:41;;;;;;;5.80;5.00;;;13.50;99.90;;;;;;5124794;28;20443;-79
2021/08/28 07:13:07;;;;;;;5.40;4.90;;;13.70;99.90;;;;;;5126670;28;20462;-79
2021/08/28 07:15:36;;;;;;;5.30;4.80;;;13.70;99.90;;;;;;5127264;28;20459;-79
2021/08/28 07:18:07;;;;;;;6.30;4.80;;;13.60;99.90;;;;;;5130012;28;20443;-79
2021/08/28 07:20:34;;;;;;;7.73;6.03;;;13.80;99.90;;;;;;5125367;28;20449;-80
2021/08/28 07:23:01;;;;;;;6.50;5.20;;;13.70;99.90;;;;;;5122476;28;20483;-79
2021/08/28 07:25:28;;;;;;;6.70;5.50;;;13.70;99.90;;;;;;5123106;28;20469;-79
2021/08/28 07:27:58;;;;;;;7.10;5.70;;;13.80;99.90;;;;;;5123205;28;20474;-79
2021/08/28 07:30:25;;;;;;;8.47;5.83;;;13.80;99.90;;;;;;5125993;28;20431;-79
2021/08/28 07:32:55;;;;;;;5.87;4.60;;;13.80;99.90;;;;;;5123838;28;20474;-79
2021/08/28 07:35:22;;;;;;;5.13;4.63;;;13.80;99.90;;;;;;5125800;28;20470;-79
2021/08/28 07:37:49;;;;;;;6.40;4.90;;;13.90;99.90;;;;;;5125707;28;20473;-79
2021/08/28 07:40:15;;;;;;;5.97;5.43;;;13.90;99.90;;;;;;5130022;28;20423;-80
2021/08/28 07:42:45;;;;;;;6.93;5.27;;;13.70;99.90;;;;;;5131897;28;20516;-79
2021/08/28 07:45:14;;;;;;;6.53;5.17;;;13.90;99.90;;;;;;5127807;28;20463;-80
2021/08/28 07:47:40;;;;;;;6.10;5.37;;;14.00;99.90;;;;;;5128572;28;20470;-80
2021/08/28 07:50:07;;;;;;;4.87;4.40;;;14.00;99.90;;;;;;5127691;28;20856;-80
2021/08/28 07:52:40;;;;;;;6.17;5.57;;;13.90;99.90;;;;;;5128482;28;20439;-79
2021/08/28 07:55:07;;;;;;;5.50;5.00;;;14.10;99.90;;;;;;5125939;28;20467;-80
2021/08/28 07:57:37;;;;;;;5.37;4.63;;;14.30;99.90;;;;;;5128930;28;20448;-79
2021/08/28 08:00:06;;;;;;;6.20;4.73;;;13.90;99.90;;;;;;5124094;28;20537;-79
2021/08/28 08:02:34;;;;;;;6.00;5.00;;;14.10;99.90;;;;;;5130179;28;20478;-80
2021/08/28 08:05:01;;;;;;;4.97;4.47;;;14.30;99.90;;;;;;5129821;28;20463;-79
2021/08/28 08:07:27;;;;;;;5.03;4.57;;;14.30;99.90;;;;;;5125824;28;20901;-79
2021/08/28 08:09:54;;;;;;;5.37;4.87;;;14.30;99.90;;;;;;5123657;28;20452;-79
2021/08/28 08:12:20;;;;;;;5.80;5.10;;;14.30;99.90;;;;;;5123552;28;20443;-79
2021/08/28 08:14:47;;;;;;;6.17;5.60;;;14.30;99.90;;;;;;5122644;28;20475;-77
2021/08/28 08:17:14;;;;;;;5.83;5.27;;;14.40;99.90;;;;;;5122509;28;20451;-78
2021/08/28 08:19:42;;;;;;;5.60;4.70;;;14.40;99.90;;;;;;5122061;28;20480;-79
2021/08/28 08:22:09;;;;;;;6.50;5.30;;;14.30;99.90;;;;;;5125862;28;21073;-78
2021/08/28 08:24:35;;;;;;;4.50;4.17;;;14.30;99.90;;;;;;5129947;28;20523;-79
2021/08/28 08:27:02;;;;;;;5.87;5.30;;;14.30;99.90;;;;;;5130567;28;20439;-79
2021/08/28 08:29:29;;;;;;;4.97;4.50;;;14.30;99.90;;;;;;5130255;28;20447;-79
2021/08/28 08:31:56;;;;;;;6.30;5.70;;;14.40;99.90;;;;;;5130338;28;20442;-79
2021/08/28 08:34:23;;;;;;;6.57;5.43;;;14.50;99.90;;;;;;5125471;28;20529;-80
2021/08/28 08:36:51;;;;;;;5.87;5.30;;;14.60;99.90;;;;;;5122516;28;20447;-79
2021/08/28 08:39:21;;;;;;;6.33;5.73;;;14.60;99.90;;;;;;5122896;28;20406;-80
2021/08/28 08:41:50;;;;;;;4.93;4.53;;;14.70;99.90;;;;;;5125019;28;20463;-80
2021/08/28 08:44:17;;;;;;;5.57;5.07;;;14.60;99.90;;;;;;5131828;28;20466;-79
2021/08/28 08:46:44;;;;;;;5.30;4.80;;;14.60;99.90;;;;;;5131901;28;20435;-80
2021/08/28 08:49:13;;;;;;;5.37;4.87;;;14.60;99.90;;;;;;5129094;28;20447;-80
2021/08/28 08:51:42;;;;;;;5.33;4.90;;;14.60;99.90;;;;;;5128277;28;20451;-80
2021/08/28 08:54:13;;;;;;;5.93;5.33;;;14.80;99.90;;;;;;5127680;28;20447;-79
2021/08/28 08:56:39;;;;;;;5.00;4.50;;;14.60;99.90;;;;;;5126255;28;20846;-80
2021/08/28 08:59:06;;;;;;;5.30;4.80;;;14.80;99.90;;;;;;5126750;28;20451;-80
2021/08/28 09:01:33;;;;;;;5.43;4.93;;;14.90;99.90;;;;;;5127552;28;20497;-85
2021/08/28 09:03:59;;;;;;;4.37;3.80;;;15.00;99.90;;;;;;5127170;28;20479;-84
2021/08/28 09:06:26;;;;;;;4.83;4.43;;;14.90;99.90;;;;;;5124302;28;20443;-84
2021/08/28 09:08:52;;;;;;;5.10;4.60;;;14.90;99.90;;;;;;5123388;28;20455;-84
2021/08/28 09:11:24;;;;;;;4.93;4.53;;;15.00;99.90;;;;;;5125054;28;20496;-83
2021/08/28 09:13:50;;;;;;;4.03;3.73;;;15.20;99.90;;;;;;5123411;28;20496;-89
2021/08/28 09:16:33;;;;;;;4.03;3.73;;;14.70;99.90;;;;;;5123322;28;20456;-85
2021/08/28 09:18:59;;;;;;;4.93;3.53;;;14.90;99.90;;;;;;5121640;28;20515;-84
2021/08/28 09:21:31;;;;;;;4.17;3.77;;;14.90;99.90;;;;;;5123907;28;20942;-84
2021/08/28 09:24:02;;;;;;;5.20;3.83;;;14.90;99.90;;;;;;5121989;28;20467;-82
2021/08/28 09:26:33;;;;;;;4.40;4.10;;;15.10;99.90;;;;;;5122238;28;20452;-86
2021/08/28 09:29:00;;;;;;;4.10;3.70;;;15.10;99.90;;;;;;5120443;28;20428;-85
2021/08/28 09:31:37;;;;;;;4.40;4.00;;;15.20;99.90;;;;;;5123793;28;20444;-85
2021/08/28 09:34:31;;;;;;;4.30;3.90;;;15.20;99.90;;;;;;5124670;28;20450;-84
2021/08/28 09:37:00;;;;;;;4.73;4.30;;;15.40;99.90;;;;;;5077220;28;20516;-85
2021/08/28 09:39:41;;;;;;;6.97;4.10;;;15.30;99.90;;;;;;5124677;28;20447;-85
2021/08/28 09:42:10;;;;;;;5.77;4.30;;;15.30;99.90;;;;;;5120238;28;20810;-85
2021/08/28 09:44:38;;;;;;;4.90;3.17;;;15.30;99.90;;;;;;5127312;28;20467;-85
2021/08/28 09:47:17;;;;;;;5.17;4.63;;;15.00;99.90;;;;;;5132728;28;20435;-86
2021/08/28 09:49:46;;;;;;;4.00;3.70;;;14.90;99.90;;;;;;5119950;28;20463;-85
2021/08/28 09:52:14;;;;;;;3.70;3.40;;;15.20;99.90;;;;;;5128186;28;20448;-82
2021/08/28 09:54:41;;;;;;;4.10;3.80;;;15.20;99.90;;;;;;5131274;28;20493;-81
2021/08/28 09:57:10;;;;;;;4.13;3.53;;;15.20;99.90;;;;;;5130916;28;20999;-81
2021/08/28 09:59:37;;;;;;;4.53;4.20;;;15.20;99.90;;;;;;5130090;28;20439;-83
2021/08/28 10:02:17;;;;;;;4.87;4.47;;;15.20;99.90;;;;;;5131876;28;20439;-83
2021/08/28 10:04:54;;;;;;;4.60;4.17;;;15.30;99.90;;;;;;5133001;28;20452;-82
2021/08/28 10:07:23;;;;;;;3.37;3.10;;;15.40;99.90;;;;;;5134694;28;20515;-82
2021/08/28 10:09:55;;;;;;;7.67;5.80;;;15.50;99.90;;;;;;5135967;28;20424;-82
2021/08/28 10:12:23;;;;;;;6.83;5.20;;;15.50;99.90;;;;;;5137234;28;20452;-81
2021/08/28 10:14:52;;;;;;;7.37;5.17;;;15.60;99.90;;;;;;5132956;28;20481;-83
2021/08/28 10:17:20;;;;;;;4.83;4.27;;;15.80;99.90;;;;;;5131457;28;20435;-82
2021/08/28 10:19:50;;;;;;;3.90;3.60;;;15.90;99.90;;;;;;5130786;28;20465;-83
2021/08/28 10:22:21;;;;;;;4.07;3.70;;;16.00;99.90;;;;;;5130581;28;20444;-83
2021/08/28 10:24:51;;;;;;;3.77;3.47;;;16.00;99.90;;;;;;5130894;28;20460;-84
2021/08/28 10:27:23;;;;;;;3.53;3.23;;;16.30;99.90;;;;;;5130492;28;20421;-83
2021/08/28 10:29:51;;;;;;;4.10;3.80;;;16.20;99.90;;;;;;5132293;28;20440;-83
2021/08/28 10:32:18;;;;;;;3.13;2.83;;;;;;;;;;5137098;27;20435;-82
2021/08/28 10:34:45;;;;;;;3.60;3.30;;;16.30;99.90;;;;;;5136377;28;20459;-82
2021/08/28 10:37:12;;;;;;;4.17;3.87;;;16.40;99.90;;;;;;5136901;28;20446;-82
2021/08/28 10:39:41;;;;;;;3.13;2.93;;;16.40;99.90;;;;;;5134388;28;20436;-82
2021/08/28 10:42:09;;;;;;;3.43;3.13;;;16.40;99.90;;;;;;5133046;28;20446;-82
2021/08/28 10:44:40;;;;;;;3.93;3.53;;;16.40;99.90;;;;;;5131780;28;20482;-82
2021/08/28 10:47:13;;;;;;;5.77;3.57;;;16.40;99.90;;;;;;5132228;28;20477;-83
2021/08/28 10:49:44;;;;;;;3.57;3.33;;;16.60;99.90;;;;;;5135307;28;20475;-82
2021/08/28 10:52:17;;;;;;;4.70;3.63;;;16.50;99.90;;;;;;5134029;28;20527;-82
2021/08/28 10:54:44;;;;;;;4.40;3.67;;;16.50;99.90;;;;;;5132142;28;20460;-83
2021/08/28 10:57:21;;;;;;;3.23;3.00;;;16.50;99.90;;;;;;5131091;28;20428;-83
2021/08/28 11:00:00;;;;;;;4.07;3.67;;;16.40;99.90;;;;;;5130365;28;20420;-82
2021/08/28 11:02:48;;;;;;;3.77;3.47;;;16.40;99.90;;;;;;5130996;28;20435;-83
2021/08/28 11:05:16;;;;;;;3.60;3.30;;;16.50;99.90;;;;;;5128831;28;20824;-83
2021/08/28 11:07:43;;;;;;;3.80;3.50;;;16.60;99.90;;;;;;5130063;28;20503;-83
2021/08/28 11:10:16;;;;;;;4.20;3.53;;;16.60;99.90;;;;;;5132108;28;20431;-83
2021/08/28 11:12:48;;;;;;;4.90;4.50;;;16.60;99.90;;;;;;5136657;28;20898;-83
2021/08/28 11:15:42;;;;;;;7.20;3.80;;;16.50;99.90;;;;;;5135934;28;20830;-82
2021/08/28 11:18:10;;;;;;;4.27;3.87;;;16.50;99.90;;;;;;5134674;28;20427;-85
2021/08/28 11:20:39;;;;;;;7.33;4.03;;;16.40;99.90;;;;;;5135664;28;20419;-83
2021/08/28 11:23:08;;;;;;;5.00;3.77;;;16.50;99.90;;;;;;5132669;28;20870;-81
2021/08/28 11:25:37;;;;;;;4.93;4.10;;;16.50;99.90;;;;;;5132228;28;20475;-82
2021/08/28 11:28:04;;;;;;;5.33;3.77;;;16.60;99.90;;;;;;5132584;28;20443;-81
2021/08/28 11:30:55;;;;;;;3.67;3.37;;;16.50;99.90;;;;;;5131560;28;20432;-81
2021/08/28 11:33:24;;;;;;;5.30;3.90;;;16.70;99.90;;;;;;5136657;28;20428;-81
2021/08/28 11:35:54;;;;;;;4.37;3.97;;;16.90;99.90;;;;;;5135598;28;20489;-81
2021/08/28 11:38:23;;;;;;;4.37;3.50;;;16.90;99.90;;;;;;5133732;28;20448;-81
2021/08/28 11:40:58;;;;;;;3.40;3.20;;;17.00;99.90;;;;;;5135041;28;20455;-82
2021/08/28 11:43:31;;;;;;;3.50;3.30;;;17.20;99.90;;;;;;5134264;28;20463;-81
2021/08/28 11:46:07;;;;;;;3.40;3.10;;;17.20;99.90;;;;;;5132970;28;20460;-82
2021/08/28 11:48:37;;;;;;;3.20;3.00;;;17.50;99.90;;;;;;5128829;28;20420;-83
2021/08/28 11:51:09;;;;;;;5.60;3.40;;;17.50;99.90;;;;;;5126387;28;20453;-82
2021/08/28 11:53:39;;;;;;;4.13;3.13;;;17.20;99.90;;;;;;5126840;28;20439;-81
2021/08/28 11:56:08;;;;;;;3.57;3.27;;;17.30;99.90;;;;;;5128267;28;20463;-82
2021/08/28 11:58:51;;;;;;;3.80;3.50;;;17.40;99.90;;;;;;5130115;28;20447;-82
2021/08/28 12:01:42;;;;;;;3.10;2.70;;;17.40;99.90;;;;;;5131953;28;20428;-81
2021/08/28 12:04:10;;;;;;;2.37;2.17;;;17.30;99.90;;;;;;5129951;28;20543;-81
2021/08/28 12:06:38;;;;;;;4.20;3.80;;;17.60;99.90;;;;;;5135714;28;20443;-82
2021/08/28 12:09:06;;;;;;;3.40;3.20;;;17.60;99.90;;;;;;5133489;28;20442;-81
2021/08/28 12:11:34;;;;;;;2.63;2.43;;;17.70;99.90;;;;;;5134191;28;20444;-81
2021/08/28 12:14:03;;;;;;;2.60;2.40;;;18.20;99.90;;;;;;5132064;28;20448;-82
2021/08/28 12:16:31;;;;;;;3.33;2.47;;;17.90;99.90;;;;;;5130685;28;20477;-82
2021/08/28 12:19:06;;;;;;;2.70;2.50;;;17.90;99.90;;;;;;5129217;28;20463;-80
2021/08/28 12:21:35;;;;;;;2.40;2.20;;;18.00;99.90;;;;;;5131989;28;20439;-82
2021/08/28 12:26:45;;;;;;;2.83;2.63;;;18.20;99.90;;;;;;5138421;22;20487;-81
2021/08/28 12:46:56;;;;;;;2.23;2.03;;;18.50;99.90;;;;;;5381754;22;20625;-80
2021/08/28 12:52:58;;;;;;;1.87;1.77;;;18.50;99.90;;;;;;5084937;28;21011;-81
2021/08/28 12:59:30;;;;;;;2.03;1.93;;;18.60;99.90;;;;;;5096767;27;20520;-81
2021/08/28 13:02:23;;;;;;;2.10;2.00;;;18.60;99.90;;;;;;5138243;27;20438;-81
2021/08/28 13:05:07;;;;;;;1.93;1.80;;;17.50;99.90;;;;;;5143928;27;20488;-82
2021/08/28 13:11:17;;;;;;;;;;;;;;;;;;;;;
2021/08/28 13:14:22;;;;;;;2.07;1.90;;;18.60;99.90;;;;;;5093574;28;20978;-82
2021/08/28 13:20:50;;;;;;;1.80;1.70;;;18.80;99.90;;;;;;5133020;27;20804;-82
2021/08/28 13:23:52;;;;;;;1.70;1.60;;;20.80;99.90;;;;;;5159215;27;20498;-82
2021/08/28 13:43:18;;;;;;;2.00;1.90;;;19.00;99.90;;;;;;5096151;28;20404;-81
2021/08/28 13:49:18;;;;;;;2.47;2.27;;;;;;;;;;5153794;27;20461;-81
2021/08/28 13:52:35;;;;;;;2.37;2.17;;;19.00;99.90;;;;;;5157654;27;20456;-80
2021/08/28 13:55:10;;;;;;;2.17;2.00;;;19.00;99.90;;;;;;5157154;22;20513;-81
2021/08/28 13:58:15;;;;;;;1.80;1.70;;;19.10;99.90;;;;;;5136951;27;20475;-81
2021/08/28 14:01:10;;;;;;;2.30;1.93;;;19.20;99.90;;;;;;5139008;27;20446;-80
2021/08/28 14:11:46;;;;;;;2.40;2.20;;;19.30;99.90;;;;;;4947256;29;20443;-80
2021/08/28 14:25:46;;;;;;;;;;;;;;;;;;;;;
2021/08/28 14:28:57;;;;;;;9.70;6.50;;;18.30;99.90;;;;;;4849621;29;20469;-81
2021/08/28 14:38:15;;;;;;;3.17;2.87;;;19.10;99.90;;;;;;4912432;28;20877;-80
2021/08/28 14:48:30;;;;;;;2.80;2.30;;;19.10;99.90;;;;;;4885539;29;20454;-81
2021/08/28 15:11:20;;;;;;;3.47;3.17;;;;;;;;;;4902673;28;20430;-78
2021/08/28 15:13:47;;;;;;;2.53;2.43;;;19.00;99.90;;;;;;4977711;28;20496;-78
2021/08/28 15:16:13;;;;;;;2.50;2.40;;;19.00;99.90;;;;;;5017395;28;20629;-77
2021/08/28 15:18:42;;;;;;;3.23;2.93;;;18.90;99.90;;;;;;5091008;28;20455;-78
2021/08/28 15:21:09;;;;;;;2.40;2.13;;;18.90;99.90;;;;;;5118352;28;20776;-78
2021/08/28 15:23:37;;;;;;;2.80;2.50;;;18.80;99.90;;;;;;5118497;28;20508;-78
2021/08/28 15:26:07;;;;;;;5.73;2.50;;;18.80;99.90;;;;;;5118239;28;20475;-78
2021/08/28 15:28:34;;;;;;;2.90;2.60;;;18.80;99.90;;;;;;5118480;28;20432;-78
2021/08/28 15:31:01;;;;;;;2.63;2.40;;;18.70;99.90;;;;;;5118283;28;20443;-78
2021/08/28 15:33:28;;;;;;;2.70;2.50;;;18.80;99.90;;;;;;5117793;28;20522;-78
2021/08/28 15:35:56;;;;;;;1.93;1.83;;;18.80;99.90;;;;;;5118913;28;20482;-78
2021/08/28 15:38:23;;;;;;;2.80;2.60;;;18.80;99.90;;;;;;5117722;28;20832;-78
2021/08/28 15:40:50;;;;;;;3.13;2.93;;;18.80;99.90;;;;;;5118238;28;20451;-78
2021/08/28 15:43:18;;;;;;;3.70;2.90;;;18.80;99.90;;;;;;5118215;28;20447;-78
2021/08/28 15:45:44;;;;;;;2.30;2.10;;;18.80;99.90;;;;;;5117919;28;20571;-78
2021/08/28 15:48:11;;;;;;;2.50;2.30;;;18.70;99.90;;;;;;5121642;28;20443;-77
2021/08/28 15:50:38;;;;;;;4.70;2.50;;;18.80;99.90;;;;;;5126135;28;20455;-77
2021/08/28 15:53:06;;;;;;;3.00;2.37;;;18.80;99.90;;;;;;5127624;28;20443;-77
2021/08/28 15:55:32;;;;;;;3.90;3.03;;;18.70;99.90;;;;;;5125622;28;20508;-77
2021/08/28 15:57:59;;;;;;;3.37;2.57;;;18.70;99.90;;;;;;5122666;28;20428;-77
2021/08/28 16:00:25;;;;;;;3.70;3.20;;;18.70;99.90;;;;;;5123640;28;20950;-77
2021/08/28 16:02:52;;;;;;;2.87;2.50;;;18.70;99.90;;;;;;5128143;28;20443;-77
2021/08/28 16:05:19;;;;;;;4.07;2.73;;;18.70;99.90;;;;;;5130850;28;20487;-77
2021/08/28 16:07:45;;;;;;;3.60;3.30;;;18.60;99.90;;;;;;5122742;28;21024;-77
2021/08/28 16:10:15;;;;;;;5.07;3.70;;;18.60;99.90;;;;;;5118341;28;20479;-78
2021/08/28 16:12:42;;;;;;;2.63;2.43;;;18.60;99.90;;;;;;5117719;28;20496;-77
2021/08/28 16:15:11;;;;;;;2.67;2.47;;;18.60;99.90;;;;;;5117222;28;20463;-78
2021/08/28 16:17:38;;;;;;;2.90;2.70;;;18.60;99.90;;;;;;5117854;28;20454;-78
2021/08/28 16:20:06;;;;;;;3.17;2.87;;;18.50;99.90;;;;;;5117909;28;20902;-77
2021/08/28 16:22:36;;;;;;;2.93;2.73;;;18.50;99.90;;;;;;5116235;28;20451;-77
2021/08/28 16:25:03;;;;;;;3.40;3.10;;;18.40;99.90;;;;;;5116746;28;20518;-77
2021/08/28 16:27:31;;;;;;;5.00;3.20;;;18.40;99.90;;;;;;5118669;28;20867;-78
2021/08/28 16:29:58;;;;;;;2.80;2.60;;;18.40;99.90;;;;;;5120547;28;20977;-78
2021/08/28 16:32:25;;;;;;;3.33;3.03;;;18.30;99.90;;;;;;5120327;28;20439;-76
2021/08/28 16:34:52;;;;;;;3.63;3.30;;;18.30;99.90;;;;;;5124299;28;20459;-77
2021/08/28 16:37:18;;;;;;;4.37;3.97;;;18.30;99.90;;;;;;5130129;28;20443;-77
2021/08/28 16:39:45;;;;;;;3.53;3.23;;;18.30;99.90;;;;;;5119446;28;20879;-77
2021/08/28 16:42:12;;;;;;;3.50;2.80;;;18.00;99.90;;;;;;5119439;28;20444;-77
2021/08/28 16:44:40;;;;;;;3.30;2.77;;;17.80;99.90;;;;;;5124884;28;20483;-77
2021/08/28 16:47:06;;;;;;;3.53;3.33;;;17.20;99.90;;;;;;5125275;28;20527;-77
2021/08/28 16:49:36;;;;;;;4.90;4.40;;;17.40;99.90;;;;;;5124915;28;20493;-78
2021/08/28 16:52:03;;;;;;;3.80;3.40;;;17.00;99.90;;;;;;5117616;28;20870;-78
2021/08/28 16:54:29;;;;;;;6.17;4.33;;;16.80;99.90;;;;;;5117338;28;20506;-78
2021/08/28 16:56:56;;;;;;;5.30;4.20;;;16.20;99.90;;;;;;5116818;28;21006;-78
2021/08/28 16:59:22;;;;;;;5.83;5.23;;;15.80;99.90;;;;;;5117270;28;20854;-78
2021/08/28 17:01:50;;;;;;;6.40;4.60;;;15.60;99.90;;;;;;5116935;28;20475;-78
2021/08/28 17:04:17;;;;;;;8.40;6.30;;;15.40;99.90;;;;;;5116476;28;20451;-78
2021/08/28 17:06:44;;;;;;;8.40;6.07;;;15.40;99.90;;;;;;5116702;28;20482;-78
2021/08/28 17:09:10;;;;;;;11.23;7.93;;;15.00;99.90;;;;;;5116401;28;20469;-78